Terminal Aerodrome Forecast
Issued by NWS

Home | Current Version | Previous Version | Text Only | Print | Product List | Glossary Off
Versions: 1 2 3 4 5 6 7 8 9 10 11 12 13 14 15 16 17 18 19 20

732
FTUS43 KBIS 240031 AAA
TAFMOT
TAF AMD
KMOT 240031Z 2401/2424 26018KT P6SM SCT150
     FM240600 25014KT P6SM SCT100
     FM241500 28017G24KT P6SM SCT025
     FM241900 28018G25KT P6SM BKN020=

USA.gov is the U.S. government's official web portal to all federal, state and local government web resources and services.